sensor_id;sensor_type;location;lat;lon;timestamp;pressure;altitude;pressure_sealevel;temperature;humidity
38530;BME280;24301;54.332;48.386;2023-04-30T00:00:25;98829.47;;;16.22;38.97
38530;BME280;24301;54.332;48.386;2023-04-30T00:02:51;98827.00;;;16.18;38.79
38530;BME280;24301;54.332;48.386;2023-04-30T00:05:17;98831.50;;;16.16;38.86
38530;BME280;24301;54.332;48.386;2023-04-30T00:07:43;98834.41;;;16.09;39.04
38530;BME280;24301;54.332;48.386;2023-04-30T00:10:09;98837.25;;;16.03;39.27
38530;BME280;24301;54.332;48.386;2023-04-30T00:12:37;98843.69;;;15.98;39.45
38530;BME280;24301;54.332;48.386;2023-04-30T00:15:04;98837.59;;;15.96;39.36
38530;BME280;24301;54.332;48.386;2023-04-30T00:17:32;98835.78;;;15.96;39.21
38530;BME280;24301;54.332;48.386;2023-04-30T00:19:59;98835.78;;;15.96;39.25
38530;BME280;24301;54.332;48.386;2023-04-30T00:22:26;98841.88;;;15.98;39.33
38530;BME280;24301;54.332;48.386;2023-04-30T00:24:52;98838.31;;;15.99;39.09
38530;BME280;24301;54.332;48.386;2023-04-30T00:27:18;98838.31;;;15.99;39.02
38530;BME280;24301;54.332;48.386;2023-04-30T00:29:44;98838.19;;;16.02;39.15
38530;BME280;24301;54.332;48.386;2023-04-30T00:32:09;98842.53;;;16.05;38.86
38530;BME280;24301;54.332;48.386;2023-04-30T00:34:35;98847.88;;;16.03;38.94
38530;BME280;24301;54.332;48.386;2023-04-30T00:37:02;98848.88;;;16.01;39.17
38530;BME280;24301;54.332;48.386;2023-04-30T00:39:28;98866.66;;;15.97;39.52
38530;BME280;24301;54.332;48.386;2023-04-30T00:41:54;98864.50;;;15.83;39.96
38530;BME280;24301;54.332;48.386;2023-04-30T00:44:21;98859.56;;;15.74;40.34
38530;BME280;24301;54.332;48.386;2023-04-30T00:46:47;98862.63;;;15.63;40.70
38530;BME280;24301;54.332;48.386;2023-04-30T00:49:13;98863.69;;;15.57;41.17
38530;BME280;24301;54.332;48.386;2023-04-30T00:51:39;98866.81;;;15.45;41.38
38530;BME280;24301;54.332;48.386;2023-04-30T00:54:07;98866.19;;;15.36;41.53
38530;BME280;24301;54.332;48.386;2023-04-30T00:56:33;98861.91;;;15.34;41.72
38530;BME280;24301;54.332;48.386;2023-04-30T00:59:00;98862.00;;;15.31;41.88
38530;BME280;24301;54.332;48.386;2023-04-30T01:01:27;98856.75;;;15.29;41.87
38530;BME280;24301;54.332;48.386;2023-04-30T01:03:53;98863.75;;;15.32;41.81
38530;BME280;24301;54.332;48.386;2023-04-30T01:06:19;98849.78;;;15.27;41.94
38530;BME280;24301;54.332;48.386;2023-04-30T01:08:46;98863.84;;;15.29;41.94
38530;BME280;24301;54.332;48.386;2023-04-30T01:11:27;98854.13;;;15.29;42.13
38530;BME280;24301;54.332;48.386;2023-04-30T01:14:08;98858.44;;;15.32;41.72
38530;BME280;24301;54.332;48.386;2023-04-30T01:16:42;98845.13;;;15.33;41.24
38530;BME280;24301;54.332;48.386;2023-04-30T01:22:03;98858.78;;;15.46;41.31
38530;BME280;24301;54.332;48.386;2023-04-30T01:27:47;98857.75;;;15.50;41.11
38530;BME280;24301;54.332;48.386;2023-04-30T01:30:07;98849.78;;;15.52;40.89
38530;BME280;24301;54.332;48.386;2023-04-30T01:32:34;98845.13;;;15.59;40.47
38530;BME280;24301;54.332;48.386;2023-04-30T01:35:00;98851.63;;;15.74;39.94
38530;BME280;24301;54.332;48.386;2023-04-30T01:37:59;98853.53;;;15.94;39.66
38530;BME280;24301;54.332;48.386;2023-04-30T01:40:42;98851.22;;;16.08;39.19
38530;BME280;24301;54.332;48.386;2023-04-30T01:43:33;98847.09;;;16.23;38.90
38530;BME280;24301;54.332;48.386;2023-04-30T01:46:11;98845.91;;;16.31;38.40
38530;BME280;24301;54.332;48.386;2023-04-30T01:48:57;98841.06;;;16.42;38.00
38530;BME280;24301;54.332;48.386;2023-04-30T01:53:55;98847.09;;;16.68;37.77
38530;BME280;24301;54.332;48.386;2023-04-30T02:04:22;98850.19;;;17.61;36.37
38530;BME280;24301;54.332;48.386;2023-04-30T02:06:48;98855.72;;;17.75;36.24
38530;BME280;24301;54.332;48.386;2023-04-30T02:09:14;98847.34;;;17.85;35.85
38530;BME280;24301;54.332;48.386;2023-04-30T02:11:40;98848.69;;;17.93;36.03
38530;BME280;24301;54.332;48.386;2023-04-30T02:14:06;98859.78;;;18.03;35.75
38530;BME280;24301;54.332;48.386;2023-04-30T02:16:52;98857.66;;;18.12;35.41
38530;BME280;24301;54.332;48.386;2023-04-30T02:19:18;98859.38;;;18.13;35.29
38530;BME280;24301;54.332;48.386;2023-04-30T02:21:43;98850.59;;;18.11;35.20
38530;BME280;24301;54.332;48.386;2023-04-30T02:24:09;98859.66;;;18.06;35.22
38530;BME280;24301;54.332;48.386;2023-04-30T02:26:35;98854.41;;;18.05;35.15
38530;BME280;24301;54.332;48.386;2023-04-30T02:29:01;98853.47;;;18.06;35.17
38530;BME280;24301;54.332;48.386;2023-04-30T02:31:27;98851.44;;;18.11;35.21
38530;BME280;24301;54.332;48.386;2023-04-30T02:33:53;98846.72;;;18.18;35.09
38530;BME280;24301;54.332;48.386;2023-04-30T02:36:19;98844.38;;;18.29;34.82
38530;BME280;24301;54.332;48.386;2023-04-30T02:38:45;98846.50;;;18.59;34.60
38530;BME280;24301;54.332;48.386;2023-04-30T02:41:11;98842.22;;;19.27;33.55
38530;BME280;24301;54.332;48.386;2023-04-30T02:43:38;98853.16;;;19.88;32.88
38530;BME280;24301;54.332;48.386;2023-04-30T02:46:04;98846.28;;;20.64;32.14
38530;BME280;24301;54.332;48.386;2023-04-30T02:48:30;98852.91;;;21.49;31.16
38530;BME280;24301;54.332;48.386;2023-04-30T02:50:55;98856.41;;;21.35;30.20
38530;BME280;24301;54.332;48.386;2023-04-30T02:53:21;98863.59;;;21.04;30.89
38530;BME280;24301;54.332;48.386;2023-04-30T02:55:47;98862.78;;;20.71;31.08
38530;BME280;24301;54.332;48.386;2023-04-30T02:58:13;98868.91;;;20.73;31.27
38530;BME280;24301;54.332;48.386;2023-04-30T03:00:39;98869.84;;;21.33;30.40
38530;BME280;24301;54.332;48.386;2023-04-30T03:03:05;98873.03;;;22.13;29.68
38530;BME280;24301;54.332;48.386;2023-04-30T03:05:32;98857.22;;;23.05;28.66
38530;BME280;24301;54.332;48.386;2023-04-30T03:07:58;98861.00;;;23.80;27.67
38530;BME280;24301;54.332;48.386;2023-04-30T03:10:24;98863.19;;;24.49;27.20
38530;BME280;24301;54.332;48.386;2023-04-30T03:12:50;98863.50;;;24.82;26.47
38530;BME280;24301;54.332;48.386;2023-04-30T03:15:17;98872.66;;;25.15;26.05
38530;BME280;24301;54.332;48.386;2023-04-30T03:17:42;98870.06;;;25.83;25.73
38530;BME280;24301;54.332;48.386;2023-04-30T03:20:09;98872.00;;;26.71;24.45
38530;BME280;24301;54.332;48.386;2023-04-30T03:22:35;98864.16;;;27.33;24.26
38530;BME280;24301;54.332;48.386;2023-04-30T03:25:01;98863.84;;;27.79;23.29
38530;BME280;24301;54.332;48.386;2023-04-30T03:27:29;98855.53;;;27.92;23.26
38530;BME280;24301;54.332;48.386;2023-04-30T03:29:55;98858.81;;;28.05;22.90
38530;BME280;24301;54.332;48.386;2023-04-30T03:32:21;98860.66;;;28.15;22.79
38530;BME280;24301;54.332;48.386;2023-04-30T03:34:47;98862.44;;;27.85;22.90
38530;BME280;24301;54.332;48.386;2023-04-30T03:37:13;98873.34;;;27.09;23.84
38530;BME280;24301;54.332;48.386;2023-04-30T03:39:38;98868.22;;;27.06;23.88
38530;BME280;24301;54.332;48.386;2023-04-30T03:42:04;98872.16;;;27.97;23.40
38530;BME280;24301;54.332;48.386;2023-04-30T03:44:30;98881.63;;;28.22;22.70
38530;BME280;24301;54.332;48.386;2023-04-30T03:46:56;98887.69;;;28.56;23.52
38530;BME280;24301;54.332;48.386;2023-04-30T03:49:22;98882.47;;;28.93;23.45
38530;BME280;24301;54.332;48.386;2023-04-30T03:51:48;98891.69;;;28.81;23.57
38530;BME280;24301;54.332;48.386;2023-04-30T03:54:14;98888.03;;;28.31;23.85
38530;BME280;24301;54.332;48.386;2023-04-30T03:56:40;98895.56;;;28.18;23.88
38530;BME280;24301;54.332;48.386;2023-04-30T03:59:06;98895.59;;;28.47;23.91
38530;BME280;24301;54.332;48.386;2023-04-30T04:01:32;98902.78;;;29.27;23.12
38530;BME280;24301;54.332;48.386;2023-04-30T04:03:58;98911.81;;;30.23;22.31
38530;BME280;24301;54.332;48.386;2023-04-30T04:06:25;98910.28;;;30.01;22.23
38530;BME280;24301;54.332;48.386;2023-04-30T04:08:51;98903.94;;;29.15;23.42
38530;BME280;24301;54.332;48.386;2023-04-30T04:11:17;98895.78;;;28.15;24.09
38530;BME280;24301;54.332;48.386;2023-04-30T04:13:43;98899.97;;;27.24;24.84
38530;BME280;24301;54.332;48.386;2023-04-30T04:16:09;98907.97;;;26.37;25.77
38530;BME280;24301;54.332;48.386;2023-04-30T04:18:35;98903.59;;;25.68;26.85
38530;BME280;24301;54.332;48.386;2023-04-30T04:21:01;98911.69;;;24.96;27.64
38530;BME280;24301;54.332;48.386;2023-04-30T04:23:29;98913.97;;;24.28;28.78
38530;BME280;24301;54.332;48.386;2023-04-30T04:25:55;98898.56;;;23.80;29.44
38530;BME280;24301;54.332;48.386;2023-04-30T04:28:22;98906.50;;;23.56;30.01
38530;BME280;24301;54.332;48.386;2023-04-30T04:30:48;98912.94;;;23.40;30.22
38530;BME280;24301;54.332;48.386;2023-04-30T04:33:14;98909.53;;;23.23;30.64
38530;BME280;24301;54.332;48.386;2023-04-30T04:35:42;98919.59;;;23.20;31.00
38530;BME280;24301;54.332;48.386;2023-04-30T04:38:08;98918.19;;;23.01;30.99
38530;BME280;24301;54.332;48.386;2023-04-30T04:40:35;98918.69;;;22.66;31.36
38530;BME280;24301;54.332;48.386;2023-04-30T04:43:02;98932.78;;;22.55;31.21
38530;BME280;24301;54.332;48.386;2023-04-30T04:45:28;98938.81;;;22.44;32.06
38530;BME280;24301;54.332;48.386;2023-04-30T04:47:55;98934.13;;;22.33;32.30
38530;BME280;24301;54.332;48.386;2023-04-30T04:50:21;98942.19;;;22.19;32.15
38530;BME280;24301;54.332;48.386;2023-04-30T04:52:47;98941.03;;;22.08;32.83
38530;BME280;24301;54.332;48.386;2023-04-30T04:55:13;98937.03;;;22.01;32.98
38530;BME280;24301;54.332;48.386;2023-04-30T04:57:39;98936.00;;;21.89;33.26
38530;BME280;24301;54.332;48.386;2023-04-30T05:00:07;98932.25;;;21.77;33.28
38530;BME280;24301;54.332;48.386;2023-04-30T05:02:34;98937.16;;;21.54;33.51
38530;BME280;24301;54.332;48.386;2023-04-30T05:05:00;98923.13;;;21.36;33.78
38530;BME280;24301;54.332;48.386;2023-04-30T05:07:30;98928.75;;;21.46;34.11
38530;BME280;24301;54.332;48.386;2023-04-30T05:09:56;98918.38;;;21.56;33.77
38530;BME280;24301;54.332;48.386;2023-04-30T05:12:22;98918.19;;;21.59;33.84
38530;BME280;24301;54.332;48.386;2023-04-30T05:14:48;98920.81;;;21.75;34.12
38530;BME280;24301;54.332;48.386;2023-04-30T05:17:16;98928.25;;;21.99;33.86
38530;BME280;24301;54.332;48.386;2023-04-30T05:19:41;98927.66;;;22.23;33.75
38530;BME280;24301;54.332;48.386;2023-04-30T05:22:07;98924.97;;;22.37;33.61
38530;BME280;24301;54.332;48.386;2023-04-30T05:24:33;98926.38;;;22.43;33.79
38530;BME280;24301;54.332;48.386;2023-04-30T05:26:59;98918.47;;;22.27;34.04
38530;BME280;24301;54.332;48.386;2023-04-30T05:29:27;98918.47;;;22.27;33.87
38530;BME280;24301;54.332;48.386;2023-04-30T05:31:53;98921.78;;;22.45;33.54
38530;BME280;24301;54.332;48.386;2023-04-30T05:34:19;98921.09;;;22.71;33.41
38530;BME280;24301;54.332;48.386;2023-04-30T05:36:45;98923.25;;;23.19;33.30
38530;BME280;24301;54.332;48.386;2023-04-30T05:39:11;98918.94;;;23.82;32.31
38530;BME280;24301;54.332;48.386;2023-04-30T05:41:37;98922.31;;;24.36;31.40
38530;BME280;24301;54.332;48.386;2023-04-30T05:44:03;98922.69;;;25.99;29.61
38530;BME280;24301;54.332;48.386;2023-04-30T05:46:30;98924.03;;;28.32;27.06
38530;BME280;24301;54.332;48.386;2023-04-30T05:48:55;98932.50;;;30.14;24.81
38530;BME280;24301;54.332;48.386;2023-04-30T05:51:21;98928.19;;;31.32;23.39
38530;BME280;24301;54.332;48.386;2023-04-30T05:53:47;98934.16;;;32.49;21.88
38530;BME280;24301;54.332;48.386;2023-04-30T05:56:13;98933.44;;;32.99;21.30
38530;BME280;24301;54.332;48.386;2023-04-30T05:58:39;98933.94;;;33.02;20.53
38530;BME280;24301;54.332;48.386;2023-04-30T06:01:05;98932.69;;;32.72;20.46
38530;BME280;24301;54.332;48.386;2023-04-30T06:03:31;98932.44;;;33.24;20.16
38530;BME280;24301;54.332;48.386;2023-04-30T06:05:57;98940.22;;;33.69;19.47
38530;BME280;24301;54.332;48.386;2023-04-30T06:08:23;98949.03;;;34.04;19.10
38530;BME280;24301;54.332;48.386;2023-04-30T06:10:49;98950.00;;;34.20;18.81
38530;BME280;24301;54.332;48.386;2023-04-30T06:13:15;98953.06;;;34.25;18.75
38530;BME280;24301;54.332;48.386;2023-04-30T06:15:41;98948.97;;;34.21;18.26
38530;BME280;24301;54.332;48.386;2023-04-30T06:18:07;98953.84;;;33.69;19.02
38530;BME280;24301;54.332;48.386;2023-04-30T06:20:33;98956.59;;;33.52;18.93
38530;BME280;24301;54.332;48.386;2023-04-30T06:22:59;98966.06;;;32.90;19.99
38530;BME280;24301;54.332;48.386;2023-04-30T06:25:27;98961.31;;;33.09;19.92
38530;BME280;24301;54.332;48.386;2023-04-30T06:27:53;98966.91;;;32.99;20.07
38530;BME280;24301;54.332;48.386;2023-04-30T06:30:19;98957.50;;;32.77;19.88
38530;BME280;24301;54.332;48.386;2023-04-30T06:32:45;98955.66;;;32.34;19.44
38530;BME280;24301;54.332;48.386;2023-04-30T06:35:11;98956.50;;;30.65;20.47
38530;BME280;24301;54.332;48.386;2023-04-30T06:37:37;98945.22;;;29.46;21.07
38530;BME280;24301;54.332;48.386;2023-04-30T06:40:03;98944.28;;;27.10;23.60
38530;BME280;24301;54.332;48.386;2023-04-30T06:42:31;98940.66;;;26.10;24.81
38530;BME280;24301;54.332;48.386;2023-04-30T06:45:03;98948.47;;;26.02;25.49
38530;BME280;24301;54.332;48.386;2023-04-30T06:47:32;98947.13;;;26.07;25.73
38530;BME280;24301;54.332;48.386;2023-04-30T06:50:03;98941.13;;;27.05;24.92
38530;BME280;24301;54.332;48.386;2023-04-30T06:52:31;98938.28;;;28.53;23.39
38530;BME280;24301;54.332;48.386;2023-04-30T06:54:57;98926.69;;;28.01;23.78
38530;BME280;24301;54.332;48.386;2023-04-30T06:57:23;98924.56;;;28.86;23.26
38530;BME280;24301;54.332;48.386;2023-04-30T06:59:50;98924.41;;;29.57;21.88
38530;BME280;24301;54.332;48.386;2023-04-30T07:02:16;98937.34;;;29.63;22.13
38530;BME280;24301;54.332;48.386;2023-04-30T07:04:42;98933.72;;;30.30;21.68
38530;BME280;24301;54.332;48.386;2023-04-30T07:07:08;98941.94;;;30.00;21.32
38530;BME280;24301;54.332;48.386;2023-04-30T07:09:34;98936.72;;;30.27;21.09
38530;BME280;24301;54.332;48.386;2023-04-30T07:12:03;98935.78;;;30.46;20.46
38530;BME280;24301;54.332;48.386;2023-04-30T07:14:29;98933.78;;;30.48;20.76
38530;BME280;24301;54.332;48.386;2023-04-30T07:16:55;98922.03;;;30.01;21.13
38530;BME280;24301;54.332;48.386;2023-04-30T07:19:21;98916.41;;;28.16;22.52
38530;BME280;24301;54.332;48.386;2023-04-30T07:21:48;98911.41;;;26.05;24.97
38530;BME280;24301;54.332;48.386;2023-04-30T07:24:14;98912.75;;;26.00;25.44
38530;BME280;24301;54.332;48.386;2023-04-30T07:26:40;98904.91;;;25.62;25.62
38530;BME280;24301;54.332;48.386;2023-04-30T07:29:07;98892.66;;;25.11;26.38
38530;BME280;24301;54.332;48.386;2023-04-30T07:31:33;98892.28;;;25.40;26.48
38530;BME280;24301;54.332;48.386;2023-04-30T07:33:58;98889.97;;;25.47;26.03
38530;BME280;24301;54.332;48.386;2023-04-30T07:36:24;98892.94;;;26.01;25.53
38530;BME280;24301;54.332;48.386;2023-04-30T07:38:52;98907.59;;;26.98;24.40
38530;BME280;24301;54.332;48.386;2023-04-30T07:41:18;98887.88;;;25.39;26.17
38530;BME280;24301;54.332;48.386;2023-04-30T07:43:44;98885.16;;;23.80;27.90
38530;BME280;24301;54.332;48.386;2023-04-30T07:46:10;98890.72;;;24.16;28.31
38530;BME280;24301;54.332;48.386;2023-04-30T07:48:35;98909.94;;;25.67;26.60
38530;BME280;24301;54.332;48.386;2023-04-30T07:51:02;98894.75;;;26.46;25.55
38530;BME280;24301;54.332;48.386;2023-04-30T07:53:29;98886.91;;;27.19;25.01
38530;BME280;24301;54.332;48.386;2023-04-30T07:55:55;98891.38;;;28.14;24.24
38530;BME280;24301;54.332;48.386;2023-04-30T07:58:21;98881.72;;;28.91;23.09
38530;BME280;24301;54.332;48.386;2023-04-30T08:00:47;98877.78;;;28.95;22.51
38530;BME280;24301;54.332;48.386;2023-04-30T08:03:13;98875.72;;;28.58;22.88
38530;BME280;24301;54.332;48.386;2023-04-30T08:05:39;98870.00;;;27.60;23.27
38530;BME280;24301;54.332;48.386;2023-04-30T08:08:06;98876.06;;;25.87;25.21
38530;BME280;24301;54.332;48.386;2023-04-30T08:10:32;98868.88;;;24.58;26.54
38530;BME280;24301;54.332;48.386;2023-04-30T08:12:58;98873.84;;;23.23;27.97
38530;BME280;24301;54.332;48.386;2023-04-30T08:15:25;98865.09;;;22.53;28.65
38530;BME280;24301;54.332;48.386;2023-04-30T08:17:51;98875.25;;;22.33;29.72
38530;BME280;24301;54.332;48.386;2023-04-30T08:20:17;98857.94;;;22.12;29.62
38530;BME280;24301;54.332;48.386;2023-04-30T08:22:44;98854.91;;;21.89;30.11
38530;BME280;24301;54.332;48.386;2023-04-30T08:25:10;98858.75;;;21.70;30.89
38530;BME280;24301;54.332;48.386;2023-04-30T08:27:39;98854.00;;;21.45;30.83
38530;BME280;24301;54.332;48.386;2023-04-30T08:30:06;98858.06;;;21.52;30.94
38530;BME280;24301;54.332;48.386;2023-04-30T08:32:36;98882.69;;;22.01;30.13
38530;BME280;24301;54.332;48.386;2023-04-30T08:35:03;98867.69;;;21.98;29.38
38530;BME280;24301;54.332;48.386;2023-04-30T08:37:29;98865.66;;;22.16;29.08
38530;BME280;24301;54.332;48.386;2023-04-30T08:39:56;98866.03;;;22.24;28.59
38530;BME280;24301;54.332;48.386;2023-04-30T08:42:25;98869.91;;;22.48;28.34
38530;BME280;24301;54.332;48.386;2023-04-30T08:44:54;98857.56;;;22.73;27.56
38530;BME280;24301;54.332;48.386;2023-04-30T08:47:21;98864.59;;;22.88;27.61
38530;BME280;24301;54.332;48.386;2023-04-30T08:49:48;98857.56;;;23.13;26.77
38530;BME280;24301;54.332;48.386;2023-04-30T08:52:15;98873.97;;;23.21;26.68
38530;BME280;24301;54.332;48.386;2023-04-30T08:54:46;98844.03;;;23.02;27.01
38530;BME280;24301;54.332;48.386;2023-04-30T08:57:13;98848.66;;;23.13;26.63
38530;BME280;24301;54.332;48.386;2023-04-30T08:59:39;98859.19;;;23.29;26.44
38530;BME280;24301;54.332;48.386;2023-04-30T09:02:06;98858.72;;;23.09;26.71
38530;BME280;24301;54.332;48.386;2023-04-30T09:04:35;98875.06;;;22.78;27.26
38530;BME280;24301;54.332;48.386;2023-04-30T09:07:01;98855.94;;;22.70;27.45
38530;BME280;24301;54.332;48.386;2023-04-30T09:09:29;98846.94;;;22.71;27.82
38530;BME280;24301;54.332;48.386;2023-04-30T09:12:14;98845.34;;;22.68;27.73
38530;BME280;24301;54.332;48.386;2023-04-30T09:15:04;98851.72;;;22.53;28.24
38530;BME280;24301;54.332;48.386;2023-04-30T09:17:32;98854.16;;;22.29;28.79
38530;BME280;24301;54.332;48.386;2023-04-30T09:20:08;98857.28;;;22.08;29.10
38530;BME280;24301;54.332;48.386;2023-04-30T09:22:35;98852.28;;;22.16;29.13
38530;BME280;24301;54.332;48.386;2023-04-30T09:25:02;98855.75;;;22.31;29.12
38530;BME280;24301;54.332;48.386;2023-04-30T09:27:29;98851.25;;;22.04;29.43
38530;BME280;24301;54.332;48.386;2023-04-30T09:29:55;98868.09;;;21.77;29.70
38530;BME280;24301;54.332;48.386;2023-04-30T09:32:21;98870.19;;;21.72;30.20
38530;BME280;24301;54.332;48.386;2023-04-30T09:34:57;98877.81;;;21.64;30.51
38530;BME280;24301;54.332;48.386;2023-04-30T09:37:39;98880.69;;;21.75;30.24
38530;BME280;24301;54.332;48.386;2023-04-30T09:40:06;98883.00;;;21.67;30.89
38530;BME280;24301;54.332;48.386;2023-04-30T09:42:32;98883.84;;;21.67;30.70
38530;BME280;24301;54.332;48.386;2023-04-30T09:44:58;98878.41;;;21.69;31.05
38530;BME280;24301;54.332;48.386;2023-04-30T09:47:28;98868.47;;;21.71;30.68
38530;BME280;24301;54.332;48.386;2023-04-30T09:49:58;98884.78;;;21.66;30.86
38530;BME280;24301;54.332;48.386;2023-04-30T09:52:24;98878.59;;;21.80;30.78
38530;BME280;24301;54.332;48.386;2023-04-30T09:54:50;98868.50;;;21.86;30.46
38530;BME280;24301;54.332;48.386;2023-04-30T09:57:20;98868.84;;;21.94;30.72
38530;BME280;24301;54.332;48.386;2023-04-30T09:59:48;98857.56;;;22.03;30.16
38530;BME280;24301;54.332;48.386;2023-04-30T10:02:17;98864.97;;;22.27;30.32
38530;BME280;24301;54.332;48.386;2023-04-30T10:04:47;98871.88;;;22.44;30.24
38530;BME280;24301;54.332;48.386;2023-04-30T10:07:20;98862.75;;;22.48;30.17
38530;BME280;24301;54.332;48.386;2023-04-30T10:09:57;98871.78;;;22.46;30.11
38530;BME280;24301;54.332;48.386;2023-04-30T10:12:33;98876.97;;;22.34;29.54
38530;BME280;24301;54.332;48.386;2023-04-30T10:15:35;98878.38;;;22.13;30.78
38530;BME280;24301;54.332;48.386;2023-04-30T10:18:05;98869.19;;;22.17;30.28
38530;BME280;24301;54.332;48.386;2023-04-30T10:20:35;98864.25;;;22.10;30.05
38530;BME280;24301;54.332;48.386;2023-04-30T10:23:08;98857.56;;;22.03;30.34
38530;BME280;24301;54.332;48.386;2023-04-30T10:25:34;98848.81;;;21.87;30.15
38530;BME280;24301;54.332;48.386;2023-04-30T10:28:07;98865.03;;;21.69;30.33
38530;BME280;24301;54.332;48.386;2023-04-30T10:30:37;98855.13;;;21.86;30.21
38530;BME280;24301;54.332;48.386;2023-04-30T10:36:03;98856.75;;;21.74;30.34
38530;BME280;24301;54.332;48.386;2023-04-30T10:38:31;98854.91;;;21.89;30.20
38530;BME280;24301;54.332;48.386;2023-04-30T10:40:59;98854.53;;;21.95;29.67
38530;BME280;24301;54.332;48.386;2023-04-30T10:43:29;98848.41;;;21.78;29.71
38530;BME280;24301;54.332;48.386;2023-04-30T10:45:56;98844.50;;;21.55;30.06
38530;BME280;24301;54.332;48.386;2023-04-30T10:48:25;98860.41;;;21.57;30.06
38530;BME280;24301;54.332;48.386;2023-04-30T10:50:54;98843.91;;;21.35;29.65
38530;BME280;24301;54.332;48.386;2023-04-30T10:53:21;98835.59;;;21.25;30.19
38530;BME280;24301;54.332;48.386;2023-04-30T10:55:56;98822.75;;;21.02;30.25
38530;BME280;24301;54.332;48.386;2023-04-30T10:58:30;98804.25;;;20.84;30.86
38530;BME280;24301;54.332;48.386;2023-04-30T11:01:10;98819.38;;;20.84;31.48
38530;BME280;24301;54.332;48.386;2023-04-30T11:03:37;98848.31;;;20.91;31.59
38530;BME280;24301;54.332;48.386;2023-04-30T11:06:10;98805.28;;;20.81;31.63
38530;BME280;24301;54.332;48.386;2023-04-30T11:08:38;98815.59;;;20.72;32.15
38530;BME280;24301;54.332;48.386;2023-04-30T11:11:08;98815.38;;;20.60;32.92
38530;BME280;24301;54.332;48.386;2023-04-30T11:13:42;98806.50;;;20.60;33.23
38530;BME280;24301;54.332;48.386;2023-04-30T11:16:09;98806.59;;;20.58;33.46
38530;BME280;24301;54.332;48.386;2023-04-30T11:18:45;98785.34;;;20.57;34.10
38530;BME280;24301;54.332;48.386;2023-04-30T11:21:12;98825.44;;;20.55;33.90
38530;BME280;24301;54.332;48.386;2023-04-30T11:23:41;98791.88;;;20.51;34.57
38530;BME280;24301;54.332;48.386;2023-04-30T11:26:09;98768.16;;;20.30;35.19
38530;BME280;24301;54.332;48.386;2023-04-30T11:28:36;98810.03;;;20.14;35.66
38530;BME280;24301;54.332;48.386;2023-04-30T11:31:03;98776.13;;;19.84;36.55
38530;BME280;24301;54.332;48.386;2023-04-30T11:33:30;98771.28;;;19.74;36.87
38530;BME280;24301;54.332;48.386;2023-04-30T11:35:58;98753.16;;;19.65;37.20
38530;BME280;24301;54.332;48.386;2023-04-30T11:38:26;98739.06;;;19.63;38.02
38530;BME280;24301;54.332;48.386;2023-04-30T11:40:53;98715.66;;;19.68;38.14
38530;BME280;24301;54.332;48.386;2023-04-30T11:43:39;98759.19;;;19.85;38.70
38530;BME280;24301;54.332;48.386;2023-04-30T11:46:10;98783.31;;;19.81;38.64
38530;BME280;24301;54.332;48.386;2023-04-30T11:48:46;98746.59;;;19.55;40.05
38530;BME280;24301;54.332;48.386;2023-04-30T11:51:20;98774.75;;;19.27;41.78
38530;BME280;24301;54.332;48.386;2023-04-30T11:53:48;98767.75;;;19.08;42.22
38530;BME280;24301;54.332;48.386;2023-04-30T11:56:22;98769.47;;;19.09;42.54
38530;BME280;24301;54.332;48.386;2023-04-30T11:58:51;98770.06;;;18.96;42.85
38530;BME280;24301;54.332;48.386;2023-04-30T12:01:18;98768.94;;;19.02;43.05
38530;BME280;24301;54.332;48.386;2023-04-30T12:03:46;98764.66;;;19.16;42.45
38530;BME280;24301;54.332;48.386;2023-04-30T12:06:23;98762.28;;;19.27;42.43
38530;BME280;24301;54.332;48.386;2023-04-30T12:08:54;98756.13;;;19.43;41.79
38530;BME280;24301;54.332;48.386;2023-04-30T12:11:21;98761.38;;;19.60;41.56
38530;BME280;24301;54.332;48.386;2023-04-30T12:13:55;98763.53;;;19.53;42.05
38530;BME280;24301;54.332;48.386;2023-04-30T12:16:28;98759.91;;;19.55;42.32
38530;BME280;24301;54.332;48.386;2023-04-30T12:19:03;98729.34;;;19.62;41.95
38530;BME280;24301;54.332;48.386;2023-04-30T12:21:29;98741.13;;;19.74;41.60
38530;BME280;24301;54.332;48.386;2023-04-30T12:23:55;98740.84;;;19.78;41.64
38530;BME280;24301;54.332;48.386;2023-04-30T12:26:21;98738.00;;;19.81;41.76
38530;BME280;24301;54.332;48.386;2023-04-30T12:28:48;98741.38;;;19.69;42.59
38530;BME280;24301;54.332;48.386;2023-04-30T12:31:17;98731.13;;;19.45;43.84
38530;BME280;24301;54.332;48.386;2023-04-30T12:33:43;98752.09;;;19.51;43.94
38530;BME280;24301;54.332;48.386;2023-04-30T12:36:09;98748.16;;;19.09;46.70
38530;BME280;24301;54.332;48.386;2023-04-30T12:38:35;98727.72;;;18.92;47.58
38530;BME280;24301;54.332;48.386;2023-04-30T12:41:05;98751.94;;;18.70;49.51
38530;BME280;24301;54.332;48.386;2023-04-30T12:43:34;98754.31;;;18.58;49.96
38530;BME280;24301;54.332;48.386;2023-04-30T12:46:00;98729.41;;;18.42;51.48
38530;BME280;24301;54.332;48.386;2023-04-30T12:48:27;98743.25;;;18.31;52.84
38530;BME280;24301;54.332;48.386;2023-04-30T12:51:01;98732.66;;;18.29;53.21
38530;BME280;24301;54.332;48.386;2023-04-30T12:53:28;98718.75;;;18.06;53.94
38530;BME280;24301;54.332;48.386;2023-04-30T12:56:14;98718.59;;;17.90;55.50
38530;BME280;24301;54.332;48.386;2023-04-30T12:58:42;98754.88;;;17.72;56.24
38530;BME280;24301;54.332;48.386;2023-04-30T13:01:15;98755.97;;;17.68;56.66
38530;BME280;24301;54.332;48.386;2023-04-30T13:03:44;98719.13;;;17.60;57.01
38530;BME280;24301;54.332;48.386;2023-04-30T13:06:13;98780.19;;;17.62;57.17
38530;BME280;24301;54.332;48.386;2023-04-30T13:08:39;98734.94;;;17.63;57.13
38530;BME280;24301;54.332;48.386;2023-04-30T13:11:05;98723.09;;;17.51;57.44
38530;BME280;24301;54.332;48.386;2023-04-30T13:13:31;98694.47;;;17.39;58.12